createdAt,value
2018-03-25T00:00:43.310Z,8.00
2018-03-25T00:03:10.308Z,8.00
2018-03-25T00:05:37.312Z,8.00
2018-03-25T00:08:04.330Z,8.00
2018-03-25T00:10:31.320Z,8.00
2018-03-25T00:12:58.317Z,8.00
2018-03-25T00:15:26.102Z,8.00
2018-03-25T00:17:54.774Z,8.00
2018-03-25T00:20:21.767Z,8.00
2018-03-25T00:22:48.826Z,8.00
2018-03-25T00:25:15.822Z,8.00
2018-03-25T00:27:42.868Z,8.00
2018-03-25T00:30:09.867Z,7.90
2018-03-25T00:32:36.865Z,8.00
2018-03-25T00:35:04.634Z,8.00
2018-03-25T00:37:31.675Z,8.00
2018-03-25T00:39:58.664Z,7.90
2018-03-25T00:42:25.742Z,8.00
2018-03-25T00:44:53.363Z,7.90
2018-03-25T00:47:21.209Z,7.90
2018-03-25T00:49:48.206Z,7.90
2018-03-25T00:52:15.243Z,8.00
2018-03-25T00:54:42.341Z,7.90
2018-03-25T00:57:09.341Z,7.90
2018-03-25T00:59:36.390Z,7.90
2018-03-25T01:02:03.393Z,7.90
2018-03-25T01:04:30.395Z,8.00
2018-03-25T01:06:57.389Z,7.90
2018-03-25T01:09:24.382Z,7.90
2018-03-25T01:11:51.441Z,7.90
2018-03-25T01:14:18.437Z,7.90
2018-03-25T01:16:45.437Z,7.90
2018-03-25T01:19:13.209Z,7.90
2018-03-25T01:21:40.258Z,7.90
2018-03-25T01:24:07.258Z,7.90
2018-03-25T01:26:34.293Z,7.90
2018-03-25T01:29:01.286Z,7.90
2018-03-25T01:31:28.286Z,7.90
2018-03-25T01:33:56.129Z,7.90
2018-03-25T01:36:24.055Z,7.90
2018-03-25T01:38:51.049Z,7.90
2018-03-25T01:41:18.823Z,7.70
2018-03-25T01:43:45.825Z,7.90
2018-03-25T01:46:12.820Z,7.90
2018-03-25T01:48:39.900Z,7.90
2018-03-25T01:51:06.898Z,7.90
2018-03-25T01:53:33.946Z,7.90
2018-03-25T01:56:00.947Z,7.80
2018-03-25T01:58:28.002Z,7.80
2018-03-25T02:00:55.002Z,7.90
2018-03-25T02:03:23.433Z,7.80
2018-03-25T02:05:50.429Z,7.80
2018-03-25T02:08:17.515Z,7.80
2018-03-25T02:10:44.512Z,7.80
2018-03-25T02:13:11.505Z,7.80
2018-03-25T02:15:39.273Z,7.80
2018-03-25T02:18:06.279Z,7.80
2018-03-25T02:20:33.277Z,7.80
2018-03-25T02:23:00.363Z,7.80
2018-03-25T02:25:27.365Z,7.80
2018-03-25T02:27:55.908Z,7.80
2018-03-25T02:30:24.759Z,7.80
2018-03-25T02:32:51.756Z,7.80
2018-03-25T02:35:18.802Z,7.80
2018-03-25T02:37:45.801Z,7.80
2018-03-25T02:40:12.802Z,7.80
2018-03-25T02:42:39.817Z,7.80
2018-03-25T02:45:07.610Z,7.80
2018-03-25T02:47:34.617Z,7.80
2018-03-25T02:50:02.441Z,7.80
2018-03-25T02:52:29.723Z,7.80
2018-03-25T02:54:56.721Z,7.80
2018-03-25T02:57:24.488Z,7.80
2018-03-25T02:59:52.333Z,7.80
2018-03-25T03:02:19.336Z,7.80
2018-03-25T03:04:46.330Z,7.80
2018-03-25T03:07:14.172Z,7.80
2018-03-25T03:09:41.249Z,7.80
2018-03-25T03:12:08.320Z,7.80
2018-03-25T03:14:35.317Z,7.80
2018-03-25T03:17:02.330Z,7.80
2018-03-25T03:19:29.329Z,7.80
2018-03-25T03:21:56.416Z,7.80
2018-03-25T03:24:23.950Z,7.80
2018-03-25T03:26:50.941Z,7.80
2018-03-25T03:29:17.941Z,7.70
2018-03-25T03:31:44.954Z,7.80
2018-03-25T03:34:12.806Z,7.80
2018-03-25T03:36:39.812Z,7.70
2018-03-25T03:39:06.815Z,7.70
2018-03-25T03:41:33.809Z,7.80
2018-03-25T03:44:00.865Z,7.70
2018-03-25T03:46:27.852Z,7.70
2018-03-25T03:48:54.858Z,7.70
2018-03-25T03:51:21.916Z,7.70
2018-03-25T03:53:48.994Z,7.70
2018-03-25T03:56:15.987Z,7.70
2018-03-25T03:58:43.038Z,7.70
2018-03-25T04:01:10.039Z,7.70
2018-03-25T04:03:37.073Z,7.70
2018-03-25T04:06:04.065Z,7.70
2018-03-25T04:08:31.070Z,7.70
2018-03-25T04:10:58.104Z,7.70
2018-03-25T04:13:25.109Z,7.60
2018-03-25T04:15:52.101Z,7.70
2018-03-25T04:18:19.861Z,7.60
2018-03-25T04:20:46.909Z,7.60
2018-03-25T04:23:13.918Z,7.60
2018-03-25T04:25:40.957Z,7.60
2018-03-25T04:28:07.969Z,7.60
2018-03-25T04:30:34.953Z,7.60
2018-03-25T04:33:02.721Z,7.60
2018-03-25T04:35:29.769Z,7.60
2018-03-25T04:37:56.844Z,7.60
2018-03-25T04:40:24.617Z,7.60
2018-03-25T04:42:51.619Z,7.60
2018-03-25T04:45:18.609Z,7.60
2018-03-25T04:47:46.369Z,7.60
2018-03-25T04:50:13.361Z,7.60
2018-03-25T04:52:40.405Z,7.60
2018-03-25T04:55:07.403Z,7.60
2018-03-25T04:57:34.404Z,7.60
2018-03-25T05:00:02.158Z,7.60
2018-03-25T05:02:29.153Z,7.60
2018-03-25T05:04:56.913Z,7.60
2018-03-25T05:07:23.974Z,7.50
2018-03-25T05:09:51.038Z,7.60
2018-03-25T05:12:18.034Z,7.50
2018-03-25T05:14:45.089Z,7.60
2018-03-25T05:17:12.085Z,7.50
2018-03-25T05:19:39.133Z,7.50
2018-03-25T05:22:06.205Z,7.60
2018-03-25T05:24:33.278Z,7.50
2018-03-25T05:27:00.273Z,7.50
2018-03-25T05:29:27.270Z,7.50
2018-03-25T05:31:55.025Z,7.40
2018-03-25T05:34:24.236Z,7.50
2018-03-25T05:36:51.230Z,7.50
2018-03-25T05:39:18.273Z,7.50
2018-03-25T05:41:45.273Z,7.50
2018-03-25T05:44:12.273Z,7.50
2018-03-25T05:46:40.109Z,7.50
2018-03-25T05:49:07.186Z,7.50
2018-03-25T05:51:34.178Z,7.50
2018-03-25T05:54:01.202Z,7.50
2018-03-25T05:56:28.181Z,7.50
2018-03-25T05:58:55.275Z,7.50
2018-03-25T06:01:22.298Z,7.50
2018-03-25T06:03:49.274Z,7.50
2018-03-25T06:06:16.265Z,7.50
2018-03-25T06:08:43.265Z,7.50
2018-03-25T06:11:10.261Z,7.50
2018-03-25T06:13:37.278Z,7.50
2018-03-25T06:16:04.270Z,7.50
2018-03-25T06:18:31.448Z,7.50
2018-03-25T06:20:58.447Z,7.50
2018-03-25T06:23:25.448Z,7.50
2018-03-25T06:25:54.012Z,7.50
2018-03-25T06:28:20.998Z,7.50
2018-03-25T06:30:48.074Z,7.50
2018-03-25T06:33:15.070Z,7.50
2018-03-25T06:35:42.838Z,7.40
2018-03-25T06:38:09.834Z,7.40
2018-03-25T06:40:37.677Z,7.50
2018-03-25T06:43:04.724Z,7.50
2018-03-25T06:45:31.717Z,7.40
2018-03-25T06:48:00.070Z,7.40
2018-03-25T06:50:28.546Z,7.50
2018-03-25T06:52:55.540Z,7.50
2018-03-25T06:55:23.021Z,7.50
2018-03-25T06:57:50.085Z,7.50
2018-03-25T07:00:17.094Z,7.50
2018-03-25T07:02:44.089Z,7.50
2018-03-25T07:05:11.085Z,7.40
2018-03-25T07:07:38.082Z,7.50
2018-03-25T07:10:05.931Z,7.40
2018-03-25T07:12:32.923Z,7.40
2018-03-25T07:14:59.951Z,7.40
2018-03-25T07:17:26.946Z,7.40
2018-03-25T07:19:54.021Z,7.40
2018-03-25T07:22:21.016Z,7.40
2018-03-25T07:24:48.010Z,7.40
2018-03-25T07:27:15.774Z,7.40
2018-03-25T07:29:42.819Z,7.40
2018-03-25T07:32:09.889Z,7.40
2018-03-25T07:34:36.982Z,7.40
2018-03-25T07:37:03.999Z,7.40
2018-03-25T07:39:31.248Z,7.40
2018-03-25T07:41:58.293Z,7.40
2018-03-25T07:44:25.379Z,7.40
2018-03-25T07:46:53.181Z,7.40
2018-03-25T07:49:20.214Z,7.40
2018-03-25T07:51:47.344Z,7.40
2018-03-25T07:54:15.207Z,7.40
2018-03-25T07:56:42.222Z,7.30
2018-03-25T07:59:09.218Z,7.40
2018-03-25T08:01:36.216Z,7.40
2018-03-25T08:04:03.306Z,7.40
2018-03-25T08:06:30.362Z,7.40
2018-03-25T08:08:57.421Z,7.40
2018-03-25T08:11:24.413Z,7.40
2018-03-25T08:13:52.577Z,7.30
2018-03-25T08:16:20.381Z,7.30
2018-03-25T08:18:47.460Z,7.30
2018-03-25T08:21:14.531Z,7.30
2018-03-25T08:23:42.195Z,7.40
2018-03-25T08:26:09.230Z,7.40
2018-03-25T08:28:37.349Z,7.30
2018-03-25T08:31:04.370Z,7.30
2018-03-25T08:33:31.433Z,7.40
2018-03-25T08:35:58.427Z,7.30
2018-03-25T08:38:25.431Z,7.40
2018-03-25T08:40:53.095Z,7.40
2018-03-25T08:43:20.105Z,7.40
2018-03-25T08:45:47.125Z,7.40
2018-03-25T08:48:14.128Z,7.40
2018-03-25T08:50:41.970Z,7.30
2018-03-25T08:53:09.054Z,7.30
2018-03-25T08:55:36.123Z,7.40
2018-03-25T08:58:03.075Z,7.30
2018-03-25T09:00:30.088Z,7.30
2018-03-25T09:02:57.894Z,7.40
2018-03-25T09:05:25.023Z,7.30
2018-03-25T09:07:52.377Z,7.30
2018-03-25T09:10:19.485Z,7.40
2018-03-25T09:12:46.490Z,7.30
2018-03-25T09:15:13.534Z,7.30
2018-03-25T09:17:40.726Z,7.30
2018-03-25T09:20:07.736Z,7.30
2018-03-25T09:22:34.757Z,7.40
2018-03-25T09:25:01.756Z,7.30
2018-03-25T09:27:29.134Z,7.40
2018-03-25T09:29:56.182Z,7.40
2018-03-25T09:32:23.543Z,7.40
2018-03-25T09:34:50.558Z,7.40
2018-03-25T09:37:17.586Z,7.40
2018-03-25T09:39:45.386Z,7.40
2018-03-25T09:42:12.468Z,7.30
2018-03-25T09:44:39.692Z,7.40
2018-03-25T09:47:07.462Z,7.40
2018-03-25T09:49:34.475Z,7.40
2018-03-25T09:52:01.575Z,7.40
2018-03-25T09:54:28.965Z,7.40
2018-03-25T09:56:55.969Z,7.40
2018-03-25T09:59:24.158Z,7.40
2018-03-25T10:01:53.765Z,7.40
2018-03-25T10:04:20.977Z,7.40
2018-03-25T10:06:48.742Z,7.40
2018-03-25T10:09:15.752Z,7.40
2018-03-25T10:11:43.594Z,7.40
2018-03-25T10:14:10.675Z,7.40
2018-03-25T10:16:37.674Z,7.40
2018-03-25T10:19:04.673Z,7.50
2018-03-25T10:21:31.689Z,7.40
2018-03-25T10:23:58.765Z,7.50
2018-03-25T10:26:25.757Z,7.50
2018-03-25T10:28:54.445Z,7.40
2018-03-25T10:31:21.517Z,7.40
2018-03-25T10:33:48.522Z,7.40
2018-03-25T10:36:15.717Z,7.50
2018-03-25T10:38:43.483Z,7.50
2018-03-25T10:41:10.535Z,7.50
2018-03-25T10:43:37.542Z,7.40
2018-03-25T10:46:05.310Z,7.50
2018-03-25T10:48:32.456Z,7.50
2018-03-25T10:50:59.454Z,7.50
2018-03-25T10:53:26.453Z,7.50
2018-03-25T10:55:54.209Z,7.50
2018-03-25T10:58:21.201Z,7.50
2018-03-25T11:00:48.194Z,7.50
2018-03-25T11:03:16.373Z,7.50
2018-03-25T11:05:43.370Z,7.50
2018-03-25T11:08:11.134Z,7.50
2018-03-25T11:10:39.246Z,7.50
2018-03-25T11:13:06.243Z,7.60
2018-03-25T11:15:33.237Z,7.90
2018-03-25T11:18:00.234Z,8.30
2018-03-25T11:20:27.689Z,8.60
2018-03-25T11:22:54.718Z,8.90
2018-03-25T11:25:21.734Z,9.10
2018-03-25T11:27:49.569Z,9.60
2018-03-25T11:30:16.571Z,9.60
2018-03-25T11:32:43.631Z,9.70
2018-03-25T11:35:10.633Z,9.80
2018-03-25T11:37:38.443Z,10.00
2018-03-25T11:40:05.511Z,10.00
2018-03-25T11:42:32.541Z,10.10
2018-03-25T11:44:59.570Z,10.10
2018-03-25T11:47:26.579Z,10.30
2018-03-25T11:49:54.098Z,10.40
2018-03-25T11:52:21.885Z,10.50
2018-03-25T11:54:49.445Z,10.50
2018-03-25T11:57:16.450Z,10.60
2018-03-25T11:59:43.458Z,10.60
2018-03-25T12:02:10.485Z,10.70
2018-03-25T12:04:37.529Z,10.70
2018-03-25T12:07:04.529Z,10.70
2018-03-25T12:09:31.590Z,10.70
2018-03-25T12:11:58.599Z,10.70
2018-03-25T12:14:26.376Z,10.70
2018-03-25T12:16:54.145Z,10.80
2018-03-25T12:19:21.205Z,10.70
2018-03-25T12:21:48.208Z,10.80
2018-03-25T12:24:15.262Z,10.90
2018-03-25T12:26:42.339Z,10.90
2018-03-25T12:29:09.423Z,10.90
2018-03-25T12:31:36.447Z,11.00
2018-03-25T12:34:03.529Z,11.00
2018-03-25T12:36:30.650Z,11.00
2018-03-25T12:38:57.741Z,11.00
2018-03-25T12:41:25.542Z,11.10
2018-03-25T12:43:53.447Z,11.10
2018-03-25T12:46:20.520Z,11.10
2018-03-25T12:48:47.527Z,11.20
2018-03-25T12:51:14.531Z,11.20
2018-03-25T12:53:42.886Z,11.30
2018-03-25T12:56:10.010Z,11.30
2018-03-25T12:58:37.852Z,11.20
2018-03-25T13:01:04.866Z,11.20
2018-03-25T13:03:32.009Z,11.20
2018-03-25T13:05:59.031Z,11.20
2018-03-25T13:08:26.883Z,11.20
2018-03-25T13:10:53.910Z,11.10
2018-03-25T13:13:20.914Z,11.00
2018-03-25T13:15:47.995Z,10.80
2018-03-25T13:18:15.066Z,10.60
2018-03-25T13:20:42.089Z,10.40
2018-03-25T13:23:11.155Z,10.10
2018-03-25T13:25:39.139Z,10.10
2018-03-25T13:28:06.504Z,10.00
2018-03-25T13:30:33.631Z,9.80
2018-03-25T13:33:00.775Z,9.80
2018-03-25T13:35:27.814Z,9.70
2018-03-25T13:37:55.645Z,9.60
2018-03-25T13:40:23.778Z,9.50
2018-03-25T13:42:50.827Z,9.50
2018-03-25T13:45:17.821Z,9.50
2018-03-25T13:47:44.875Z,9.40
2018-03-25T13:50:11.868Z,9.40
2018-03-25T13:52:39.661Z,9.40
2018-03-25T13:55:06.658Z,9.40
2018-03-25T13:57:34.497Z,9.40
2018-03-25T14:00:01.583Z,9.30
2018-03-25T14:02:28.687Z,9.30
2018-03-25T14:04:56.547Z,9.30
2018-03-25T14:07:24.339Z,9.30
2018-03-25T14:09:52.566Z,9.20
2018-03-25T14:12:20.421Z,9.20
2018-03-25T14:14:47.426Z,9.20
2018-03-25T14:17:15.306Z,9.20
2018-03-25T14:19:42.371Z,9.10
2018-03-25T14:22:09.409Z,9.10
2018-03-25T14:24:36.405Z,9.10
2018-03-25T14:27:03.402Z,9.10
2018-03-25T14:29:30.433Z,9.00
2018-03-25T14:31:57.513Z,9.10
2018-03-25T14:34:24.593Z,9.00
2018-03-25T14:36:51.686Z,9.00
2018-03-25T14:39:18.707Z,9.00
2018-03-25T14:41:46.487Z,9.00
2018-03-25T14:44:13.484Z,9.00
2018-03-25T14:46:40.575Z,9.00
2018-03-25T14:49:07.594Z,9.00
2018-03-25T14:51:35.455Z,8.90
2018-03-25T14:54:02.514Z,8.90
2018-03-25T14:56:29.471Z,8.90
2018-03-25T14:58:56.488Z,8.90
2018-03-25T15:01:24.145Z,8.90
2018-03-25T15:03:51.238Z,8.90
2018-03-25T15:06:18.250Z,8.90
2018-03-25T15:08:45.266Z,8.90
2018-03-25T15:11:12.259Z,8.90
2018-03-25T15:13:39.468Z,8.90
2018-03-25T15:16:06.483Z,8.90
2018-03-25T15:18:33.486Z,8.90
2018-03-25T15:21:01.254Z,8.90
2018-03-25T15:23:28.316Z,8.80
2018-03-25T15:25:55.434Z,8.80
2018-03-25T15:28:23.091Z,8.80
2018-03-25T15:30:50.098Z,8.90
2018-03-25T15:33:17.866Z,8.90
2018-03-25T15:35:44.918Z,8.90
2018-03-25T15:38:11.957Z,8.90
2018-03-25T15:40:39.694Z,8.90
2018-03-25T15:43:06.736Z,8.90
2018-03-25T15:45:33.736Z,9.00
2018-03-25T15:48:00.746Z,8.90
2018-03-25T15:50:28.581Z,9.00
2018-03-25T15:52:55.659Z,8.90
2018-03-25T15:55:23.384Z,9.00
2018-03-25T15:57:51.230Z,9.00
2018-03-25T16:00:18.998Z,8.90
2018-03-25T16:02:45.990Z,8.90
2018-03-25T16:05:13.969Z,9.00
2018-03-25T16:07:40.993Z,8.90
2018-03-25T16:10:09.499Z,8.90
2018-03-25T16:12:36.487Z,8.90
2018-03-25T16:15:03.493Z,8.90
2018-03-25T16:17:30.497Z,8.90
2018-03-25T16:19:57.509Z,8.90
2018-03-25T16:22:25.277Z,8.90
2018-03-25T16:24:52.937Z,8.90
2018-03-25T16:27:19.944Z,8.90
2018-03-25T16:29:46.958Z,8.90
2018-03-25T16:32:13.960Z,8.90
2018-03-25T16:34:40.957Z,8.90
2018-03-25T16:37:07.957Z,8.90
2018-03-25T16:39:35.800Z,8.90
2018-03-25T16:42:02.883Z,8.90
2018-03-25T16:44:29.877Z,8.90
2018-03-25T16:46:56.923Z,8.90
2018-03-25T16:49:23.920Z,9.00
2018-03-25T16:51:53.068Z,9.00
2018-03-25T16:54:20.838Z,9.10
2018-03-25T16:56:47.838Z,9.10
2018-03-25T16:59:15.600Z,9.10
2018-03-25T17:01:42.645Z,9.00
2018-03-25T17:04:09.647Z,9.10
2018-03-25T17:06:36.674Z,9.10
2018-03-25T17:09:03.662Z,9.10
2018-03-25T17:11:30.738Z,9.10
2018-03-25T17:13:57.813Z,9.10
2018-03-25T17:16:24.814Z,9.20
2018-03-25T17:18:52.606Z,9.10
2018-03-25T17:21:20.558Z,9.10
2018-03-25T17:23:47.558Z,9.10
2018-03-25T17:26:16.159Z,9.10
2018-03-25T17:28:43.162Z,9.10
2018-03-25T17:31:10.944Z,9.10
2018-03-25T17:33:37.937Z,9.10
2018-03-25T17:36:04.984Z,9.00
2018-03-25T17:38:32.007Z,9.10
2018-03-25T17:40:59.773Z,9.10
2018-03-25T17:43:27.639Z,9.00
2018-03-25T17:45:54.646Z,9.10
2018-03-25T17:48:23.197Z,9.00
2018-03-25T17:50:50.199Z,9.00
2018-03-25T17:53:17.268Z,9.10
2018-03-25T17:55:44.307Z,9.10
2018-03-25T17:58:12.049Z,9.00
2018-03-25T18:00:39.052Z,9.00
2018-03-25T18:03:06.172Z,9.00
2018-03-25T18:05:33.247Z,9.00
2018-03-25T18:08:00.256Z,9.00
2018-03-25T18:10:27.301Z,9.00
2018-03-25T18:12:54.301Z,9.00
2018-03-25T18:15:22.411Z,9.00
2018-03-25T18:17:50.375Z,9.00
2018-03-25T18:20:17.368Z,9.00
2018-03-25T18:22:45.247Z,9.00
2018-03-25T18:25:12.530Z,9.00
2018-03-25T18:27:39.588Z,9.00
2018-03-25T18:30:07.350Z,9.00
2018-03-25T18:32:34.350Z,9.00
2018-03-25T18:35:01.360Z,9.00
2018-03-25T18:37:28.457Z,9.00
2018-03-25T18:39:55.493Z,9.00
2018-03-25T18:42:23.049Z,9.00
2018-03-25T18:44:50.055Z,9.00
2018-03-25T18:47:17.094Z,8.90
2018-03-25T18:49:44.178Z,8.90
2018-03-25T18:52:11.247Z,8.90
2018-03-25T18:54:38.328Z,8.90
2018-03-25T18:57:05.413Z,8.90
2018-03-25T18:59:32.516Z,9.00
2018-03-25T19:02:00.292Z,8.90
2018-03-25T19:04:28.071Z,8.90
2018-03-25T19:06:55.068Z,8.90
2018-03-25T19:09:23.693Z,9.00
2018-03-25T19:11:50.697Z,8.90
2018-03-25T19:14:17.695Z,8.90
2018-03-25T19:16:44.685Z,8.90
2018-03-25T19:19:11.732Z,8.90
2018-03-25T19:21:38.727Z,8.90
2018-03-25T19:24:05.774Z,8.90
2018-03-25T19:26:32.771Z,8.90
2018-03-25T19:29:00.639Z,8.90
2018-03-25T19:31:27.675Z,8.80
2018-03-25T19:33:54.669Z,8.90
2018-03-25T19:36:21.671Z,8.80
2018-03-25T19:38:49.429Z,8.90
2018-03-25T19:41:16.442Z,8.80
2018-03-25T19:43:43.508Z,8.80
2018-03-25T19:46:10.567Z,8.80
2018-03-25T19:48:37.566Z,8.90
2018-03-25T19:51:04.599Z,8.90
2018-03-25T19:53:31.610Z,8.80
2018-03-25T19:55:58.768Z,8.90
2018-03-25T19:58:25.770Z,8.80
2018-03-25T20:00:53.344Z,8.80
2018-03-25T20:03:20.394Z,8.80
2018-03-25T20:05:47.443Z,8.80
2018-03-25T20:08:14.494Z,8.80
2018-03-25T20:10:41.490Z,8.90
2018-03-25T20:13:08.513Z,8.80
2018-03-25T20:15:35.597Z,8.80
2018-03-25T20:18:02.619Z,8.80
2018-03-25T20:20:30.465Z,8.80
2018-03-25T20:22:57.545Z,8.80
2018-03-25T20:25:24.545Z,8.80
2018-03-25T20:27:51.566Z,8.80
2018-03-25T20:30:18.757Z,8.80
2018-03-25T20:32:45.833Z,8.80
2018-03-25T20:35:12.827Z,8.80
2018-03-25T20:37:39.888Z,8.80
2018-03-25T20:40:06.886Z,8.80
2018-03-25T20:42:34.677Z,8.80
2018-03-25T20:45:01.682Z,8.80
2018-03-25T20:47:29.529Z,8.80
2018-03-25T20:49:56.542Z,8.80
2018-03-25T20:52:23.756Z,8.80
2018-03-25T20:54:50.744Z,8.80
2018-03-25T20:57:17.748Z,8.80
2018-03-25T20:59:45.516Z,8.80
2018-03-25T21:02:12.680Z,8.80
2018-03-25T21:04:39.742Z,8.80
2018-03-25T21:07:06.737Z,8.80
2018-03-25T21:09:33.733Z,8.70
2018-03-25T21:12:01.500Z,8.80
2018-03-25T21:14:28.533Z,8.70
2018-03-25T21:16:55.527Z,8.80
2018-03-25T21:19:23.018Z,8.70
2018-03-25T21:21:50.013Z,8.80
2018-03-25T21:24:17.856Z,8.80
2018-03-25T21:26:44.855Z,8.70
2018-03-25T21:29:11.900Z,8.80
2018-03-25T21:31:38.893Z,8.80
2018-03-25T21:34:05.945Z,8.70
2018-03-25T21:36:32.937Z,8.70
2018-03-25T21:38:59.929Z,8.70
2018-03-25T21:41:26.928Z,8.70
2018-03-25T21:43:53.926Z,8.70
2018-03-25T21:46:21.010Z,8.70
2018-03-25T21:48:48.080Z,8.80
2018-03-25T21:51:15.073Z,8.70
2018-03-25T21:53:43.745Z,8.70
2018-03-25T21:56:10.742Z,8.70
2018-03-25T21:58:37.805Z,8.70
2018-03-25T22:01:04.805Z,8.70
2018-03-25T22:03:31.883Z,8.70
2018-03-25T22:05:58.843Z,8.70
2018-03-25T22:08:25.837Z,8.70
2018-03-25T22:10:53.789Z,8.70
2018-03-25T22:13:20.785Z,8.70
2018-03-25T22:15:47.778Z,8.70
2018-03-25T22:18:15.539Z,8.70
2018-03-25T22:20:42.529Z,8.70
2018-03-25T22:23:10.293Z,8.70
2018-03-25T22:25:37.286Z,8.70
2018-03-25T22:28:04.283Z,8.70
2018-03-25T22:30:31.276Z,8.70
2018-03-25T22:32:58.386Z,8.70
2018-03-25T22:35:25.393Z,8.70
2018-03-25T22:37:53.357Z,8.70
2018-03-25T22:40:20.349Z,8.70
2018-03-25T22:42:47.380Z,8.70
2018-03-25T22:45:14.454Z,8.70
2018-03-25T22:47:41.542Z,8.70
2018-03-25T22:50:08.537Z,8.70
2018-03-25T22:52:35.678Z,8.60
2018-03-25T22:55:02.675Z,8.70
2018-03-25T22:57:29.665Z,8.60
2018-03-25T22:59:57.514Z,8.60
2018-03-25T23:02:24.512Z,8.60
2018-03-25T23:04:51.522Z,8.70
2018-03-25T23:07:18.518Z,8.60
2018-03-25T23:09:45.518Z,8.60
2018-03-25T23:12:14.017Z,8.60
2018-03-25T23:14:41.014Z,8.60
2018-03-25T23:17:08.865Z,8.60
2018-03-25T23:19:35.858Z,8.60
2018-03-25T23:22:02.927Z,8.60
2018-03-25T23:24:29.913Z,8.60
2018-03-25T23:26:56.961Z,8.60
2018-03-25T23:29:24.037Z,8.60
2018-03-25T23:31:51.041Z,8.60
2018-03-25T23:34:18.817Z,8.60
2018-03-25T23:36:45.844Z,8.60
2018-03-25T23:39:12.837Z,8.60
2018-03-25T23:41:39.840Z,8.60
2018-03-25T23:44:06.829Z,8.60
2018-03-25T23:46:34.598Z,8.60
2018-03-25T23:49:01.589Z,8.60
2018-03-25T23:51:29.350Z,8.60
2018-03-25T23:53:56.346Z,8.60
2018-03-25T23:56:24.111Z,8.60
2018-03-25T23:58:51.195Z,8.60
